New Hampshire, Ohio
Current Conditions -  °F | °C
As of 8:53 PM on Monday 20 Oct 2014 (Local Time) from KAOH Reporting Station
Haze Haze  
Wind Chill: 54°   Ceiling: 3200
Heat Index: 54°   Visibility: 6mi
Dew Point: 51°   Wind: 6mph
Humidity: 90%   Direction: 280°W
Pressure: 29.87"   Gusts: NA
Location:  40.56°N, 83.95°W
Report Text: KAOH 210053Z AUTO 28005KT 6SM BR SCT024 BKN032 OVC065 12/11 A2987 RMK AO2 SLP115 T01220106
Loading
Personal Weather Stations






























Interactive Weather Map
Tropical Storm Tracking
New forecast layout! Learn more

10-Day Weather Forecast

Advertisements
Track Severe Weather on mobile